createdAt,value
2023-01-01T00:00:21.336Z,13.92
2023-01-01T00:01:21.283Z,13.83
2023-01-01T00:02:21.331Z,13.77
2023-01-01T00:03:21.316Z,13.81
2023-01-01T00:04:21.273Z,13.78
2023-01-01T00:05:21.271Z,13.90
2023-01-01T00:06:21.287Z,13.89
2023-01-01T00:07:21.267Z,13.86
2023-01-01T00:08:21.265Z,13.90
2023-01-01T00:09:21.262Z,13.86
2023-01-01T00:10:21.261Z,13.81
2023-01-01T00:11:21.264Z,13.85
2023-01-01T00:12:21.320Z,13.85
2023-01-01T00:13:21.253Z,13.79
2023-01-01T00:14:21.252Z,13.75
2023-01-01T00:15:21.260Z,13.74
2023-01-01T00:16:21.272Z,13.77
2023-01-01T00:17:21.254Z,13.70
2023-01-01T00:18:21.606Z,13.74
2023-01-01T00:19:21.246Z,13.74
2023-01-01T00:20:21.246Z,13.78
2023-01-01T00:21:21.243Z,13.78
2023-01-01T00:22:53.301Z,13.78
2023-01-01T00:23:21.246Z,13.67
2023-01-01T00:24:21.246Z,13.71
2023-01-01T00:25:21.242Z,13.75
2023-01-01T00:26:21.242Z,13.77
2023-01-01T00:27:21.237Z,13.75
2023-01-01T00:28:21.238Z,13.75
2023-01-01T00:29:21.239Z,13.75
2023-01-01T00:30:21.248Z,13.65
2023-01-01T00:31:21.278Z,13.78
2023-01-01T00:32:23.074Z,13.79
2023-01-01T00:33:21.223Z,13.74
2023-01-01T00:34:21.225Z,13.77
2023-01-01T00:35:21.223Z,13.78
2023-01-01T00:36:21.221Z,13.72
2023-01-01T00:37:21.227Z,13.71
2023-01-01T00:38:21.233Z,13.75
2023-01-01T00:39:21.214Z,13.77
2023-01-01T00:40:21.212Z,13.79
2023-01-01T00:41:21.230Z,13.89
2023-01-01T00:42:21.208Z,13.85
2023-01-01T00:43:21.212Z,13.87
2023-01-01T00:44:21.203Z,13.78
2023-01-01T00:45:22.572Z,13.77
2023-01-01T00:46:21.223Z,13.74
2023-01-01T00:47:21.204Z,13.78
2023-01-01T00:48:21.196Z,13.77
2023-01-01T00:49:21.199Z,13.78
2023-01-01T00:50:21.203Z,13.74
2023-01-01T00:51:21.193Z,13.70
2023-01-01T00:52:21.192Z,13.72
2023-01-01T00:53:21.214Z,13.67
2023-01-01T00:54:21.209Z,13.77
2023-01-01T00:55:21.194Z,13.79
2023-01-01T00:56:21.199Z,13.72
2023-01-01T00:57:21.193Z,13.62
2023-01-01T00:58:21.184Z,13.68
2023-01-01T00:59:25.382Z,13.65
2023-01-01T01:00:21.181Z,13.60
2023-01-01T01:01:21.350Z,13.60
2023-01-01T01:02:21.473Z,13.60
2023-01-01T01:03:21.250Z,13.56
2023-01-01T01:04:21.180Z,13.60
2023-01-01T01:05:21.173Z,13.60
2023-01-01T01:06:21.174Z,13.62
2023-01-01T01:07:21.167Z,13.63
2023-01-01T01:08:25.418Z,13.70
2023-01-01T01:09:21.207Z,13.68
2023-01-01T01:10:21.184Z,13.75
2023-01-01T01:11:21.166Z,13.81
2023-01-01T01:12:21.157Z,13.74
2023-01-01T01:13:21.158Z,13.74
2023-01-01T01:14:21.154Z,13.75
2023-01-01T01:15:21.157Z,13.75
2023-01-01T01:16:21.221Z,13.77
2023-01-01T01:17:21.151Z,13.78
2023-01-01T01:18:21.565Z,13.77
2023-01-01T01:19:21.153Z,13.62
2023-01-01T01:20:21.147Z,13.70
2023-01-01T01:21:21.145Z,13.65
2023-01-01T01:22:27.784Z,13.65
2023-01-01T01:23:21.140Z,13.68
2023-01-01T01:24:21.144Z,13.60
2023-01-01T01:25:21.137Z,13.60
2023-01-01T01:26:21.153Z,13.62
2023-01-01T01:27:21.135Z,13.62
2023-01-01T01:28:21.131Z,13.59
2023-01-01T01:29:21.133Z,13.60
2023-01-01T01:30:21.125Z,13.65
2023-01-01T01:31:21.214Z,13.57
2023-01-01T01:32:21.152Z,13.59
2023-01-01T01:33:21.123Z,13.56
2023-01-01T01:34:27.124Z,13.52
2023-01-01T01:35:21.126Z,13.47
2023-01-01T01:36:21.146Z,13.44
2023-01-01T01:37:21.115Z,13.38
2023-01-01T01:38:21.115Z,13.38
2023-01-01T01:39:21.116Z,13.33
2023-01-01T01:40:21.108Z,13.41
2023-01-01T01:41:27.878Z,13.49
2023-01-01T01:42:21.142Z,13.47
2023-01-01T01:43:21.118Z,13.46
2023-01-01T01:44:21.102Z,13.41
2023-01-01T01:45:21.105Z,13.44
2023-01-01T01:46:21.113Z,13.49
2023-01-01T01:47:21.100Z,13.50
2023-01-01T01:48:21.096Z,13.47
2023-01-01T01:49:21.099Z,13.47
2023-01-01T01:50:21.091Z,13.44
2023-01-01T01:51:21.092Z,13.42
2023-01-01T01:52:21.092Z,13.41
2023-01-01T01:53:21.089Z,13.42
2023-01-01T01:54:21.084Z,13.39
2023-01-01T01:55:21.086Z,13.41
2023-01-01T01:56:21.087Z,13.37
2023-01-01T01:57:21.087Z,13.39
2023-01-01T01:58:21.101Z,13.42
2023-01-01T01:59:21.103Z,13.41
2023-01-01T02:00:21.080Z,13.41
2023-01-01T02:01:21.178Z,13.42
2023-01-01T02:02:21.242Z,13.49
2023-01-01T02:03:21.154Z,13.38
2023-01-01T02:04:21.067Z,13.37
2023-01-01T02:05:21.073Z,13.33
2023-01-01T02:06:21.064Z,13.33
2023-01-01T02:07:21.064Z,13.28
2023-01-01T02:08:21.063Z,13.28
2023-01-01T02:09:21.064Z,13.30
2023-01-01T02:10:21.063Z,13.31
2023-01-01T02:11:22.210Z,13.37
2023-01-01T02:12:21.055Z,13.35
2023-01-01T02:13:21.061Z,13.38
2023-01-01T02:14:21.076Z,13.27
2023-01-01T02:15:21.055Z,13.30
2023-01-01T02:16:21.079Z,13.35
2023-01-01T02:17:21.049Z,13.42
2023-01-01T02:18:21.047Z,13.28
2023-01-01T02:19:21.493Z,13.28
2023-01-01T02:20:21.053Z,13.25
2023-01-01T02:21:21.045Z,13.35
2023-01-01T02:22:21.043Z,13.38
2023-01-01T02:23:21.040Z,13.38
2023-01-01T02:24:21.039Z,13.39
2023-01-01T02:25:21.040Z,13.41
2023-01-01T02:26:21.033Z,13.41
2023-01-01T02:27:21.050Z,13.35
2023-01-01T02:28:21.040Z,13.41
2023-01-01T02:29:21.069Z,13.38
2023-01-01T02:30:21.073Z,13.37
2023-01-01T02:31:23.439Z,13.39
2023-01-01T02:32:21.024Z,13.47
2023-01-01T02:33:21.020Z,13.37
2023-01-01T02:34:21.023Z,13.38
2023-01-01T02:35:21.028Z,13.38
2023-01-01T02:36:21.013Z,13.42
2023-01-01T02:37:21.021Z,13.37
2023-01-01T02:38:21.009Z,13.30
2023-01-01T02:39:21.011Z,13.28
2023-01-01T02:40:21.004Z,13.28
2023-01-01T02:41:21.025Z,13.38
2023-01-01T02:42:21.004Z,13.30
2023-01-01T02:43:24.787Z,13.35
2023-01-01T02:44:21.001Z,13.31
2023-01-01T02:45:21.004Z,13.33
2023-01-01T02:47:00.517Z,13.30
2023-01-01T02:48:00.516Z,13.39
2023-01-01T02:49:04.725Z,13.31
2023-01-01T02:50:00.497Z,13.31
2023-01-01T02:51:00.488Z,13.35
2023-01-01T02:52:00.519Z,13.38
2023-01-01T02:53:00.494Z,13.31
2023-01-01T02:54:00.493Z,13.35
2023-01-01T02:55:00.485Z,13.31
2023-01-01T02:56:00.489Z,13.27
2023-01-01T02:57:00.480Z,13.30
2023-01-01T02:58:00.489Z,13.35
2023-01-01T02:59:00.486Z,13.41
2023-01-01T03:00:00.481Z,13.38
2023-01-01T03:01:00.543Z,13.39
2023-01-01T03:02:00.610Z,13.33
2023-01-01T03:03:00.577Z,13.39
2023-01-01T03:04:00.463Z,13.30
2023-01-01T03:05:00.473Z,13.35
2023-01-01T03:06:00.466Z,13.28
2023-01-01T03:07:00.459Z,13.28
2023-01-01T03:08:00.457Z,13.27
2023-01-01T03:09:00.455Z,13.27
2023-01-01T03:10:00.454Z,13.28
2023-01-01T03:11:00.454Z,13.22
2023-01-01T03:12:00.452Z,13.20
2023-01-01T03:13:00.449Z,13.30
2023-01-01T03:14:00.444Z,13.19
2023-01-01T03:15:00.446Z,13.12
2023-01-01T03:16:00.568Z,13.16
2023-01-01T03:17:00.440Z,13.22
2023-01-01T03:18:00.440Z,13.11
2023-01-01T03:19:00.461Z,13.23
2023-01-01T03:20:00.786Z,13.19
2023-01-01T03:21:00.435Z,13.25
2023-01-01T03:22:00.435Z,13.22
2023-01-01T03:23:00.438Z,13.25
2023-01-01T03:24:00.460Z,13.30
2023-01-01T03:25:00.427Z,13.28
2023-01-01T03:26:00.424Z,13.31
2023-01-01T03:27:00.425Z,13.22
2023-01-01T03:28:00.427Z,13.22
2023-01-01T03:29:00.422Z,13.25
2023-01-01T03:30:00.425Z,13.31
2023-01-01T03:31:00.498Z,13.27
2023-01-01T03:32:00.414Z,13.31
2023-01-01T03:33:00.473Z,13.38
2023-01-01T03:34:00.410Z,13.41
2023-01-01T03:35:00.438Z,13.39
2023-01-01T03:36:00.406Z,13.42
2023-01-01T03:37:00.419Z,13.30
2023-01-01T03:38:00.413Z,13.42
2023-01-01T03:39:00.407Z,13.35
2023-01-01T03:40:00.420Z,13.38
2023-01-01T03:41:00.406Z,13.37
2023-01-01T03:42:00.394Z,13.33
2023-01-01T03:43:00.408Z,13.30
2023-01-01T03:44:00.395Z,13.35
2023-01-01T03:45:00.397Z,13.35
2023-01-01T03:46:00.411Z,13.39
2023-01-01T03:47:00.502Z,13.37
2023-01-01T03:48:00.386Z,13.38
2023-01-01T03:49:04.197Z,13.28
2023-01-01T03:50:00.381Z,13.30
2023-01-01T03:51:00.399Z,13.31
2023-01-01T03:52:00.378Z,13.27
2023-01-01T03:53:00.376Z,13.27
2023-01-01T03:54:00.370Z,13.27
2023-01-01T03:55:00.382Z,13.28
2023-01-01T03:56:00.403Z,13.31
2023-01-01T03:57:00.374Z,13.41
2023-01-01T03:58:00.381Z,13.38
2023-01-01T03:59:00.411Z,13.42
2023-01-01T04:00:00.362Z,13.47
2023-01-01T04:01:00.432Z,13.41
2023-01-01T04:02:00.483Z,13.42
2023-01-01T04:03:00.391Z,13.46
2023-01-01T04:04:00.364Z,13.41
2023-01-01T04:05:00.353Z,13.49
2023-01-01T04:06:00.385Z,13.41
2023-01-01T04:07:14.076Z,13.50
2023-01-01T04:08:00.406Z,13.42
2023-01-01T04:09:00.412Z,13.49
2023-01-01T04:10:00.380Z,13.49
2023-01-01T04:11:00.393Z,13.46
2023-01-01T04:12:00.380Z,13.47
2023-01-01T04:13:00.372Z,13.42
2023-01-01T04:14:00.334Z,13.41
2023-01-01T04:15:00.354Z,13.39
2023-01-01T04:16:00.366Z,13.30
2023-01-01T04:17:00.386Z,13.27
2023-01-01T04:18:00.344Z,13.28
2023-01-01T04:19:00.425Z,13.28
2023-01-01T04:20:00.369Z,13.23
2023-01-01T04:21:00.364Z,13.25
2023-01-01T04:22:00.329Z,13.37
2023-01-01T04:23:00.381Z,13.23
2023-01-01T04:24:00.322Z,13.22
2023-01-01T04:25:00.469Z,13.25
2023-01-01T04:26:00.314Z,13.23
2023-01-01T04:27:00.337Z,13.33
2023-01-01T04:28:00.316Z,13.28
2023-01-01T04:29:00.315Z,13.27
2023-01-01T04:30:00.311Z,13.30
2023-01-01T04:31:01.405Z,13.30
2023-01-01T04:32:00.312Z,13.27
2023-01-01T04:33:00.317Z,13.25
2023-01-01T04:34:00.315Z,13.27
2023-01-01T04:35:00.308Z,13.28
2023-01-01T04:36:00.302Z,13.27
2023-01-01T04:37:00.300Z,13.31
2023-01-01T04:38:00.300Z,13.30
2023-01-01T04:39:00.309Z,13.28
2023-01-01T04:40:00.295Z,13.23
2023-01-01T04:41:00.289Z,13.25
2023-01-01T04:42:00.299Z,13.23
2023-01-01T04:43:00.298Z,13.27
2023-01-01T04:44:00.304Z,13.22
2023-01-01T04:45:00.288Z,13.20
2023-01-01T04:46:00.316Z,13.18
2023-01-01T04:47:00.445Z,13.23
2023-01-01T04:48:00.279Z,13.23
2023-01-01T04:49:00.275Z,13.23
2023-01-01T04:50:00.288Z,13.25
2023-01-01T04:51:00.279Z,13.15
2023-01-01T04:52:00.271Z,13.20
2023-01-01T04:53:00.267Z,13.15
2023-01-01T04:54:00.269Z,13.23
2023-01-01T04:55:00.292Z,13.18
2023-01-01T04:56:00.262Z,13.20
2023-01-01T04:57:00.265Z,13.23
2023-01-01T04:58:00.263Z,13.15
2023-01-01T04:59:00.271Z,13.15
2023-01-01T05:00:00.257Z,13.11
2023-01-01T05:01:00.367Z,13.16
2023-01-01T05:02:00.584Z,13.12
2023-01-01T05:03:00.308Z,13.09
2023-01-01T05:04:00.256Z,13.13
2023-01-01T05:05:00.247Z,13.15
2023-01-01T05:06:00.245Z,13.12
2023-01-01T05:07:00.242Z,13.16
2023-01-01T05:08:00.243Z,13.20
2023-01-01T05:09:00.235Z,13.16
2023-01-01T05:10:00.249Z,13.23
2023-01-01T05:11:00.269Z,13.16
2023-01-01T05:12:00.238Z,13.15
2023-01-01T05:13:00.233Z,13.27
2023-01-01T05:14:00.238Z,13.25
2023-01-01T05:15:00.229Z,13.18
2023-01-01T05:16:00.282Z,13.22
2023-01-01T05:17:00.227Z,13.25
2023-01-01T05:18:00.228Z,13.23
2023-01-01T05:19:00.220Z,13.16
2023-01-01T05:20:00.220Z,13.20
2023-01-01T05:21:00.217Z,13.11
2023-01-01T05:22:02.826Z,13.19
2023-01-01T05:23:00.214Z,13.05
2023-01-01T05:24:00.219Z,13.13
2023-01-01T05:25:00.420Z,13.11
2023-01-01T05:26:00.215Z,13.12
2023-01-01T05:27:00.226Z,13.16
2023-01-01T05:28:00.217Z,13.11
2023-01-01T05:29:00.200Z,13.18
2023-01-01T05:30:00.236Z,13.16
2023-01-01T05:31:00.198Z,13.13
2023-01-01T05:32:00.318Z,13.04
2023-01-01T05:33:00.203Z,13.13
2023-01-01T05:34:39.695Z,13.12
2023-01-01T05:35:39.689Z,13.09
2023-01-01T05:36:39.688Z,13.19
2023-01-01T05:37:39.693Z,13.04
2023-01-01T05:38:39.683Z,13.05
2023-01-01T05:39:39.681Z,13.08
2023-01-01T05:40:39.692Z,13.08
2023-01-01T05:41:39.682Z,13.09
2023-01-01T05:42:39.808Z,13.13
2023-01-01T05:43:39.673Z,13.11
2023-01-01T05:44:39.675Z,13.11
2023-01-01T05:45:39.688Z,13.05
2023-01-01T05:46:39.668Z,13.16
2023-01-01T05:47:39.666Z,13.15
2023-01-01T05:48:39.673Z,13.15
2023-01-01T05:49:39.663Z,13.20
2023-01-01T05:50:39.671Z,13.23
2023-01-01T05:52:23.027Z,13.20
2023-01-01T05:53:19.183Z,13.27
2023-01-01T05:54:19.153Z,13.30
2023-01-01T05:55:19.147Z,13.20
2023-01-01T05:56:19.149Z,13.22
2023-01-01T05:57:19.146Z,13.18
2023-01-01T05:58:19.166Z,13.22
2023-01-01T05:59:19.156Z,13.27
2023-01-01T06:00:19.148Z,13.23
2023-01-01T06:01:19.219Z,13.20
2023-01-01T06:02:19.171Z,13.27
2023-01-01T06:03:19.134Z,13.30
2023-01-01T06:04:19.146Z,13.27
2023-01-01T06:05:19.128Z,13.23
2023-01-01T06:06:19.140Z,13.23
2023-01-01T06:07:19.126Z,13.23
2023-01-01T06:08:19.126Z,13.25
2023-01-01T06:09:19.122Z,13.25
2023-01-01T06:10:19.123Z,13.31
2023-01-01T06:11:19.118Z,13.28
2023-01-01T06:12:19.142Z,13.23
2023-01-01T06:13:19.126Z,13.22
2023-01-01T06:14:19.142Z,13.25
2023-01-01T06:15:19.112Z,13.25
2023-01-01T06:16:19.167Z,13.25
2023-01-01T06:17:19.134Z,13.25
2023-01-01T06:18:19.104Z,13.27
2023-01-01T06:19:19.101Z,13.22
2023-01-01T06:20:19.116Z,13.20
2023-01-01T06:21:19.102Z,13.16
2023-01-01T06:22:19.100Z,13.16
2023-01-01T06:23:19.111Z,13.18
2023-01-01T06:24:19.095Z,13.19
2023-01-01T06:25:19.101Z,13.28
2023-01-01T06:26:19.092Z,13.19
2023-01-01T06:27:19.087Z,13.23
2023-01-01T06:28:19.086Z,13.23
2023-01-01T06:29:19.082Z,13.28
2023-01-01T06:30:19.123Z,13.27
2023-01-01T06:31:19.142Z,13.20
2023-01-01T06:32:19.079Z,13.27
2023-01-01T06:33:19.077Z,13.23
2023-01-01T06:34:19.089Z,13.16
2023-01-01T06:35:19.071Z,13.12
2023-01-01T06:36:19.074Z,13.20
2023-01-01T06:37:19.070Z,13.27
2023-01-01T06:38:19.075Z,13.25
2023-01-01T06:39:19.066Z,13.31
2023-01-01T06:40:19.066Z,13.23
2023-01-01T06:41:19.065Z,13.38
2023-01-01T06:42:19.061Z,13.31
2023-01-01T06:43:19.058Z,13.28
2023-01-01T06:44:19.057Z,13.30
2023-01-01T06:45:19.059Z,13.27
2023-01-01T06:46:19.128Z,13.31
2023-01-01T06:47:19.051Z,13.25
2023-01-01T06:48:19.051Z,13.20
2023-01-01T06:49:19.046Z,13.27
2023-01-01T06:50:19.051Z,13.30
2023-01-01T06:51:19.047Z,13.30
2023-01-01T06:52:19.047Z,13.37
2023-01-01T06:53:19.038Z,13.33
2023-01-01T06:54:19.042Z,13.28
2023-01-01T06:55:19.035Z,13.37
2023-01-01T06:56:19.040Z,13.33
2023-01-01T06:57:19.035Z,13.31
2023-01-01T06:58:19.041Z,13.27
2023-01-01T06:59:19.031Z,13.30
2023-01-01T07:00:19.030Z,13.27
2023-01-01T07:01:19.106Z,13.27
2023-01-01T07:02:19.260Z,13.39
2023-01-01T07:03:19.043Z,13.33
2023-01-01T07:04:19.021Z,13.31
2023-01-01T07:05:19.017Z,13.33
2023-01-01T07:06:19.019Z,13.37
2023-01-01T07:07:19.013Z,13.28
2023-01-01T07:08:19.016Z,13.27
2023-01-01T07:09:19.012Z,13.28
2023-01-01T07:10:19.009Z,13.28
2023-01-01T07:11:19.013Z,13.19
2023-01-01T07:12:19.006Z,13.12
2023-01-01T07:13:19.002Z,13.11
2023-01-01T07:14:19.001Z,13.09
2023-01-01T07:15:18.997Z,13.19
2023-01-01T07:16:19.012Z,13.16
2023-01-01T07:17:18.997Z,13.13
2023-01-01T07:18:19.010Z,13.13
2023-01-01T07:19:18.993Z,13.15
2023-01-01T07:20:18.990Z,13.13
2023-01-01T07:21:23.474Z,13.05
2023-01-01T07:22:18.987Z,13.13
2023-01-01T07:23:18.985Z,13.05
2023-01-01T07:24:18.987Z,13.12
2023-01-01T07:25:18.993Z,13.09
2023-01-01T07:26:18.979Z,13.04
2023-01-01T07:27:19.179Z,13.11
2023-01-01T07:28:18.976Z,13.15
2023-01-01T07:29:18.973Z,13.11
2023-01-01T07:30:18.993Z,13.09
2023-01-01T07:31:19.023Z,13.00
2023-01-01T07:32:18.973Z,13.09
2023-01-01T07:33:18.966Z,12.98
2023-01-01T07:34:18.996Z,13.05
2023-01-01T07:35:18.960Z,13.12
2023-01-01T07:36:18.964Z,13.11
2023-01-01T07:37:18.958Z,13.19
2023-01-01T07:38:18.957Z,13.15
2023-01-01T07:39:18.958Z,13.20
2023-01-01T07:40:18.958Z,13.11
2023-01-01T07:41:18.956Z,13.19
2023-01-01T07:42:18.952Z,13.27
2023-01-01T07:43:18.944Z,13.27
2023-01-01T07:44:18.950Z,13.28
2023-01-01T07:45:18.946Z,13.25
2023-01-01T07:46:19.131Z,13.22
2023-01-01T07:47:18.939Z,13.22
2023-01-01T07:48:18.944Z,13.23
2023-01-01T07:49:18.952Z,13.25
2023-01-01T07:50:18.967Z,13.28
2023-01-01T07:51:18.937Z,13.30
2023-01-01T07:52:18.945Z,13.33
2023-01-01T07:53:18.947Z,13.31
2023-01-01T07:54:18.927Z,13.27
2023-01-01T07:55:18.926Z,13.25
2023-01-01T07:56:18.922Z,13.20
2023-01-01T07:57:18.919Z,13.18
2023-01-01T07:58:18.927Z,13.19
2023-01-01T07:59:20.776Z,13.20
2023-01-01T08:00:18.918Z,13.19
2023-01-01T08:01:19.056Z,13.16
2023-01-01T08:02:19.058Z,13.09
2023-01-01T08:03:18.950Z,13.08
2023-01-01T08:04:18.911Z,13.09
2023-01-01T08:05:26.002Z,13.13
2023-01-01T08:06:18.924Z,13.13
2023-01-01T08:07:18.904Z,13.03
2023-01-01T08:08:18.907Z,13.16
2023-01-01T08:09:18.897Z,13.15
2023-01-01T08:10:18.895Z,13.19
2023-01-01T08:11:18.901Z,13.20
2023-01-01T08:12:18.894Z,13.30
2023-01-01T08:13:18.908Z,13.25
2023-01-01T08:14:18.897Z,13.30
2023-01-01T08:15:18.895Z,13.19
2023-01-01T08:16:18.963Z,13.23
2023-01-01T08:17:18.883Z,13.30
2023-01-01T08:18:18.887Z,13.27
2023-01-01T08:19:18.876Z,13.20
2023-01-01T08:20:18.876Z,13.23
2023-01-01T08:21:18.875Z,13.25
2023-01-01T08:22:18.889Z,13.25
2023-01-01T08:23:18.889Z,13.28
2023-01-01T08:24:18.871Z,13.20
2023-01-01T08:25:18.869Z,13.23
2023-01-01T08:26:18.883Z,13.19
2023-01-01T08:27:18.859Z,13.38
2023-01-01T08:28:18.858Z,13.25
2023-01-01T08:29:18.856Z,13.20
2023-01-01T08:30:18.969Z,13.27
2023-01-01T08:31:18.895Z,13.23
2023-01-01T08:32:18.864Z,13.20
2023-01-01T08:33:18.852Z,13.30
2023-01-01T08:34:18.847Z,13.20
2023-01-01T08:35:18.848Z,13.19
2023-01-01T08:36:18.845Z,13.23
2023-01-01T08:37:18.851Z,13.31
2023-01-01T08:38:18.856Z,13.22
2023-01-01T08:39:18.842Z,13.27
2023-01-01T08:40:18.847Z,13.25
2023-01-01T08:41:18.835Z,13.31
2023-01-01T08:42:18.833Z,13.28
2023-01-01T08:43:18.826Z,13.35
2023-01-01T08:44:18.828Z,13.28
2023-01-01T08:45:18.827Z,13.27
2023-01-01T08:46:18.925Z,13.30
2023-01-01T08:47:18.833Z,13.35
2023-01-01T08:48:18.823Z,13.30
2023-01-01T08:49:18.820Z,13.30
2023-01-01T08:50:18.827Z,13.30
2023-01-01T08:51:18.815Z,13.28
2023-01-01T08:52:18.810Z,13.33
2023-01-01T08:53:18.813Z,13.28
2023-01-01T08:54:18.828Z,13.30
2023-01-01T08:55:18.804Z,13.31
2023-01-01T08:56:18.807Z,13.37
2023-01-01T08:57:18.804Z,13.27
2023-01-01T08:58:18.807Z,13.28
2023-01-01T08:59:18.805Z,13.37
2023-01-01T09:00:18.795Z,13.30
2023-01-01T09:01:18.884Z,13.33
2023-01-01T09:02:19.016Z,13.28
2023-01-01T09:03:18.879Z,13.35
2023-01-01T09:04:18.798Z,13.35
2023-01-01T09:05:18.794Z,13.35
2023-01-01T09:06:18.790Z,13.38
2023-01-01T09:07:18.784Z,13.31
2023-01-01T09:08:18.789Z,13.37
2023-01-01T09:09:19.871Z,13.35
2023-01-01T09:10:18.802Z,13.31
2023-01-01T09:11:18.773Z,13.37
2023-01-01T09:12:18.773Z,13.33
2023-01-01T09:13:18.778Z,13.30
2023-01-01T09:14:18.773Z,13.33
2023-01-01T09:15:18.771Z,13.37
2023-01-01T09:16:18.904Z,13.30
2023-01-01T09:17:18.771Z,13.33
2023-01-01T09:18:18.777Z,13.35
2023-01-01T09:19:18.768Z,13.35
2023-01-01T09:20:18.767Z,13.31
2023-01-01T09:21:18.756Z,13.37
2023-01-01T09:22:18.755Z,13.28
2023-01-01T09:23:18.756Z,13.30
2023-01-01T09:24:18.748Z,13.35
2023-01-01T09:25:18.760Z,13.33
2023-01-01T09:26:18.804Z,13.33
2023-01-01T09:27:18.768Z,13.35
2023-01-01T09:28:25.173Z,13.41
2023-01-01T09:29:18.926Z,13.41
2023-01-01T09:30:18.738Z,13.39
2023-01-01T09:31:18.796Z,13.42
2023-01-01T09:32:18.762Z,13.42
2023-01-01T09:33:18.735Z,13.38
2023-01-01T09:34:18.743Z,13.39
2023-01-01T09:35:18.727Z,13.33
2023-01-01T09:36:18.726Z,13.30
2023-01-01T09:37:18.728Z,13.31
2023-01-01T09:38:18.721Z,13.30
2023-01-01T09:39:18.719Z,13.37
2023-01-01T09:40:18.718Z,13.31
2023-01-01T09:41:18.719Z,13.33
2023-01-01T09:42:18.735Z,13.31
2023-01-01T09:43:18.733Z,13.35
2023-01-01T09:44:18.716Z,13.30
2023-01-01T09:45:18.718Z,13.38
2023-01-01T09:46:18.766Z,13.38
2023-01-01T09:47:18.704Z,13.41
2023-01-01T09:48:18.703Z,13.41
2023-01-01T09:49:18.701Z,13.38
2023-01-01T09:50:18.711Z,13.39
2023-01-01T09:51:18.697Z,13.41
2023-01-01T09:52:18.704Z,13.47
2023-01-01T09:53:18.703Z,13.46
2023-01-01T09:54:18.692Z,13.44
2023-01-01T09:55:18.706Z,13.47
2023-01-01T09:56:18.703Z,13.46
2023-01-01T09:57:20.381Z,13.41
2023-01-01T09:58:18.708Z,13.42
2023-01-01T09:59:18.690Z,13.37
2023-01-01T10:00:18.691Z,13.41
2023-01-01T10:01:18.776Z,13.35
2023-01-01T10:02:18.733Z,13.37
2023-01-01T10:03:18.675Z,13.38
2023-01-01T10:04:18.693Z,13.41
2023-01-01T10:05:18.672Z,13.33
2023-01-01T10:06:18.674Z,13.42
2023-01-01T10:07:18.671Z,13.38
2023-01-01T10:08:23.170Z,13.46
2023-01-01T10:09:18.676Z,13.41
2023-01-01T10:10:18.665Z,13.42
2023-01-01T10:11:18.666Z,13.38
2023-01-01T10:12:18.660Z,13.28
2023-01-01T10:13:18.661Z,13.28
2023-01-01T10:14:18.678Z,13.27
2023-01-01T10:15:18.672Z,13.42
2023-01-01T10:16:23.908Z,13.42
2023-01-01T10:17:18.659Z,13.39
2023-01-01T10:18:18.645Z,13.37
2023-01-01T10:19:18.665Z,13.44
2023-01-01T10:20:18.684Z,13.39
2023-01-01T10:21:18.646Z,13.41
2023-01-01T10:22:18.646Z,13.42
2023-01-01T10:23:18.669Z,13.30
2023-01-01T10:24:18.657Z,13.39
2023-01-01T10:25:18.643Z,13.31
2023-01-01T10:26:18.645Z,13.31
2023-01-01T10:27:18.634Z,13.35
2023-01-01T10:28:18.636Z,13.28
2023-01-01T10:29:18.641Z,13.27
2023-01-01T10:30:18.648Z,13.35
2023-01-01T10:31:18.734Z,13.25
2023-01-01T10:32:18.663Z,13.20
2023-01-01T10:33:18.634Z,13.41
2023-01-01T10:34:18.634Z,13.16
2023-01-01T10:35:18.617Z,13.28
2023-01-01T10:36:18.617Z,13.16
2023-01-01T10:37:18.613Z,13.18
2023-01-01T10:38:18.611Z,13.20
2023-01-01T10:39:18.607Z,13.18
2023-01-01T10:40:18.657Z,13.18
2023-01-01T10:41:20.044Z,13.09
2023-01-01T10:42:18.618Z,13.13
2023-01-01T10:43:18.613Z,13.11
2023-01-01T10:44:18.598Z,13.13
2023-01-01T10:45:18.601Z,13.12
2023-01-01T10:46:18.758Z,13.27
2023-01-01T10:47:18.593Z,13.23
2023-01-01T10:48:18.616Z,13.25
2023-01-01T10:49:18.605Z,13.23
2023-01-01T10:50:18.586Z,13.27
2023-01-01T10:51:18.608Z,13.30
2023-01-01T10:52:18.581Z,13.30
2023-01-01T10:53:18.588Z,13.44
2023-01-01T10:54:18.579Z,13.35
2023-01-01T10:55:18.582Z,13.35
2023-01-01T10:56:18.579Z,13.28
2023-01-01T10:57:18.583Z,13.27
2023-01-01T10:58:18.575Z,13.30
2023-01-01T10:59:18.575Z,13.25
2023-01-01T11:00:18.569Z,13.25
2023-01-01T11:01:18.801Z,13.25
2023-01-01T11:02:18.836Z,13.37
2023-01-01T11:03:18.683Z,13.18
2023-01-01T11:04:18.565Z,13.20
2023-01-01T11:05:21.992Z,13.30
2023-01-01T11:06:18.557Z,13.28
2023-01-01T11:07:18.558Z,13.20
2023-01-01T11:08:18.557Z,13.23
2023-01-01T11:09:18.557Z,13.28
2023-01-01T11:10:18.550Z,13.18
2023-01-01T11:11:18.549Z,13.28
2023-01-01T11:12:46.080Z,13.20
2023-01-01T11:13:18.548Z,13.23
2023-01-01T11:14:18.542Z,13.27
2023-01-01T11:15:18.545Z,13.22
2023-01-01T11:16:18.649Z,13.25
2023-01-01T11:17:18.542Z,13.23
2023-01-01T11:18:18.552Z,13.25
2023-01-01T11:19:18.538Z,13.25
2023-01-01T11:20:18.532Z,13.28
2023-01-01T11:21:18.536Z,13.30
2023-01-01T11:22:18.528Z,13.27
2023-01-01T11:23:18.547Z,13.33
2023-01-01T11:24:18.539Z,13.35
2023-01-01T11:25:18.542Z,13.30
2023-01-01T11:26:18.544Z,13.30
2023-01-01T11:27:18.527Z,13.27
2023-01-01T11:28:18.521Z,13.23
2023-01-01T11:29:18.516Z,13.28
2023-01-01T11:30:18.516Z,13.28
2023-01-01T11:31:18.789Z,13.28
2023-01-01T11:32:18.510Z,13.25
2023-01-01T11:33:18.507Z,13.30
2023-01-01T11:34:18.535Z,13.30
2023-01-01T11:35:18.507Z,13.27
2023-01-01T11:36:18.503Z,13.38
2023-01-01T11:37:18.510Z,13.27
2023-01-01T11:38:18.515Z,13.27
2023-01-01T11:39:18.531Z,13.35
2023-01-01T11:40:18.609Z,13.31
2023-01-01T11:41:18.493Z,13.31
2023-01-01T11:42:18.498Z,13.41
2023-01-01T11:43:18.492Z,13.38
2023-01-01T11:44:18.497Z,13.37
2023-01-01T11:45:18.493Z,13.42
2023-01-01T11:46:18.519Z,13.41
2023-01-01T11:47:18.492Z,13.47
2023-01-01T11:48:18.487Z,13.47
2023-01-01T11:49:18.478Z,13.41
2023-01-01T11:50:18.803Z,13.44
2023-01-01T11:51:18.478Z,13.56
2023-01-01T11:52:18.470Z,13.54
2023-01-01T11:53:18.485Z,13.53
2023-01-01T11:54:18.471Z,13.54
2023-01-01T11:55:18.476Z,13.53
2023-01-01T11:56:18.472Z,13.53
2023-01-01T11:57:18.463Z,13.50
2023-01-01T11:58:20.119Z,13.57
2023-01-01T11:59:18.461Z,13.54
2023-01-01T12:00:18.499Z,13.56
2023-01-01T12:01:18.500Z,13.63
2023-01-01T12:02:18.778Z,13.57
2023-01-01T12:03:18.483Z,13.56
2023-01-01T12:04:18.518Z,13.59
2023-01-01T12:05:18.453Z,13.57
2023-01-01T12:06:18.473Z,13.59
2023-01-01T12:07:18.449Z,13.56
2023-01-01T12:08:18.451Z,13.67
2023-01-01T12:09:19.098Z,13.59
2023-01-01T12:10:18.503Z,13.60
2023-01-01T12:11:18.445Z,13.67
2023-01-01T12:12:18.441Z,13.62
2023-01-01T12:13:18.436Z,13.63
2023-01-01T12:14:18.434Z,13.60
2023-01-01T12:15:18.436Z,13.63
2023-01-01T12:16:18.491Z,13.67
2023-01-01T12:17:18.431Z,13.56
2023-01-01T12:18:18.426Z,13.60
2023-01-01T12:19:18.421Z,13.62
2023-01-01T12:20:18.483Z,13.57
2023-01-01T12:21:18.432Z,13.59
2023-01-01T12:22:18.534Z,13.47
2023-01-01T12:23:18.417Z,13.50
2023-01-01T12:24:18.411Z,13.50
2023-01-01T12:25:18.421Z,13.49
2023-01-01T12:26:18.408Z,13.44
2023-01-01T12:27:18.418Z,13.47
2023-01-01T12:28:18.409Z,13.53
2023-01-01T12:29:18.404Z,13.54
2023-01-01T12:30:18.403Z,13.52
2023-01-01T12:31:18.457Z,13.53
2023-01-01T12:32:18.401Z,13.52
2023-01-01T12:33:18.400Z,13.56
2023-01-01T12:34:18.393Z,13.56
2023-01-01T12:35:18.397Z,13.62
2023-01-01T12:36:18.396Z,13.50
2023-01-01T12:37:18.401Z,13.59
2023-01-01T12:38:18.405Z,13.52
2023-01-01T12:39:18.389Z,13.63
2023-01-01T12:40:24.304Z,13.57
2023-01-01T12:41:18.384Z,13.62
2023-01-01T12:42:18.382Z,13.63
2023-01-01T12:43:18.406Z,13.65
2023-01-01T12:44:18.414Z,13.67
2023-01-01T12:45:18.387Z,13.71
2023-01-01T12:46:18.454Z,13.67
2023-01-01T12:47:18.371Z,13.65
2023-01-01T12:48:18.375Z,13.68
2023-01-01T12:49:18.377Z,13.63
2023-01-01T12:50:18.363Z,13.62
2023-01-01T12:51:18.366Z,13.62
2023-01-01T12:52:18.365Z,13.65
2023-01-01T12:53:18.364Z,13.62
2023-01-01T12:54:18.397Z,13.67